Time;durP1;ratioP1;P1;durP2;ratioP2;P2;SDS_P1;SDS_P2;PMS_P1;PMS_P2;Temp;Humidity;BMP_temperature;BMP_pressure;BME280_temperature;BME280_humidity;BME280_pressure;Samples;Min_cycle;Max_cycle;Signal;HPM_P1;HPM_P2
2023/08/03 00:01:29;;;;;;;6.75;1.90;;;16.70;99.90;;;;;;5117332;27;20046;-61
2023/08/03 00:04:00;;;;;;;4.28;1.80;;;16.70;99.90;;;;;;5102940;27;20167;-62
2023/08/03 00:06:27;;;;;;;2.88;1.50;;;16.70;99.90;;;;;;5117084;27;20039;-61
2023/08/03 00:08:53;;;;;;;3.20;1.40;;;16.70;99.90;;;;;;5097739;28;20054;-61
2023/08/03 00:11:19;;;;;;;4.05;2.13;;;16.70;99.90;;;;;;5113160;27;20036;-60
2023/08/03 00:13:44;;;;;;;3.67;1.60;;;16.70;99.90;;;;;;5113127;27;20035;-58
2023/08/03 00:16:10;;;;;;;4.53;1.88;;;16.70;99.90;;;;;;5120235;27;20039;-62
2023/08/03 00:18:36;;;;;;;3.50;1.52;;;16.70;99.90;;;;;;5099396;28;20039;-62
2023/08/03 00:21:01;;;;;;;6.22;1.73;;;16.70;99.90;;;;;;5120742;27;20039;-61
2023/08/03 00:23:27;;;;;;;5.90;1.98;;;16.70;99.90;;;;;;5101843;28;20035;-62
2023/08/03 00:25:53;;;;;;;5.10;1.58;;;16.70;99.90;;;;;;5098004;28;20043;-62
2023/08/03 00:28:21;;;;;;;6.15;2.17;;;16.70;99.90;;;;;;5114628;27;20046;-61
2023/08/03 00:30:47;;;;;;;4.68;1.58;;;16.70;99.90;;;;;;5116081;28;20100;-59
2023/08/03 00:33:12;;;;;;;6.35;1.83;;;16.80;99.90;;;;;;5113732;28;20115;-58
2023/08/03 00:35:38;;;;;;;4.80;1.52;;;16.80;99.90;;;;;;5099763;28;20043;-58
2023/08/03 00:38:04;;;;;;;6.28;1.60;;;16.80;99.90;;;;;;5120005;28;20038;-61
2023/08/03 00:40:30;;;;;;;6.28;1.95;;;16.80;99.90;;;;;;5123263;28;20047;-59
2023/08/03 00:42:55;;;;;;;4.63;1.50;;;16.80;99.90;;;;;;5121882;28;20038;-60
2023/08/03 00:45:21;;;;;;;3.97;1.70;;;16.80;99.90;;;;;;5095579;28;20105;-62
2023/08/03 00:47:47;;;;;;;8.15;1.60;;;16.80;99.90;;;;;;5122702;28;20088;-61
2023/08/03 00:50:13;;;;;;;4.50;1.85;;;16.80;99.90;;;;;;5093771;28;20070;-61
2023/08/03 00:52:39;;;;;;;3.85;1.70;;;16.80;99.90;;;;;;5102503;28;20045;-61
2023/08/03 00:55:05;;;;;;;5.90;1.55;;;16.80;99.90;;;;;;5111592;27;20027;-62
2023/08/03 00:57:30;;;;;;;5.13;1.35;;;16.80;99.90;;;;;;5104031;28;20066;-62
2023/08/03 00:59:56;;;;;;;6.00;1.60;;;16.80;99.90;;;;;;5098706;28;20491;-61
2023/08/03 01:02:22;;;;;;;5.00;1.60;;;16.80;99.90;;;;;;5119451;28;20476;-62
2023/08/03 01:04:49;;;;;;;2.80;1.30;;;16.80;99.90;;;;;;5113162;28;20036;-61
2023/08/03 01:07:14;;;;;;;3.55;1.58;;;16.80;99.90;;;;;;5096118;27;20070;-62
2023/08/03 01:09:40;;;;;;;4.45;1.35;;;16.80;99.90;;;;;;5096090;28;20134;-60
2023/08/03 01:12:06;;;;;;;3.47;1.67;;;16.80;99.90;;;;;;5080214;28;20039;-61
2023/08/03 01:14:32;;;;;;;7.82;1.58;;;16.80;99.90;;;;;;5120583;28;20043;-62
2023/08/03 01:16:58;;;;;;;4.50;1.30;;;16.80;99.90;;;;;;5116002;28;20164;-62
2023/08/03 01:19:24;;;;;;;3.47;1.35;;;16.80;99.90;;;;;;5113705;27;20159;-62
2023/08/03 01:21:51;;;;;;;3.75;1.30;;;16.80;99.90;;;;;;5114832;28;20633;-62
2023/08/03 01:24:17;;;;;;;2.10;1.27;;;16.80;99.90;;;;;;5098515;28;20057;-61
2023/08/03 01:26:44;;;;;;;4.13;1.38;;;16.80;99.90;;;;;;5120538;27;20040;-61
2023/08/03 01:29:11;;;;;;;4.50;1.25;;;16.90;99.90;;;;;;5112202;28;20051;-61
2023/08/03 01:31:37;;;;;;;3.22;1.20;;;16.80;99.90;;;;;;5087140;28;20047;-60
2023/08/03 01:34:02;;;;;;;3.40;1.05;;;16.80;99.90;;;;;;5122395;27;20039;-60
2023/08/03 01:36:28;;;;;;;3.30;0.98;;;16.80;99.90;;;;;;5123409;27;20043;-62
2023/08/03 01:39:04;;;;;;;3.17;1.60;;;16.80;99.90;;;;;;5124475;27;20130;-62
2023/08/03 01:41:30;;;;;;;3.38;1.23;;;16.80;99.90;;;;;;5120978;27;20054;-61
2023/08/03 01:44:25;;;;;;;3.03;1.17;;;16.90;99.90;;;;;;5096294;27;20047;-61
2023/08/03 01:46:52;;;;;;;1.92;1.10;;;16.80;99.90;;;;;;5114488;27;20534;-62
2023/08/03 01:49:19;;;;;;;4.07;1.55;;;16.80;99.90;;;;;;5118202;27;20051;-61
2023/08/03 01:51:44;;;;;;;5.55;1.63;;;16.80;99.90;;;;;;5094502;28;22436;-61
2023/08/03 01:54:11;;;;;;;1.98;1.30;;;16.90;99.90;;;;;;5082981;27;20122;-61
2023/08/03 01:56:38;;;;;;;2.88;1.33;;;16.90;99.90;;;;;;5116910;27;20039;-61
2023/08/03 01:59:04;;;;;;;3.53;1.33;;;16.90;99.90;;;;;;5116200;27;20046;-61
2023/08/03 02:01:29;;;;;;;2.97;1.55;;;16.90;99.90;;;;;;5113743;27;20112;-61
2023/08/03 02:03:55;;;;;;;4.57;2.20;;;16.90;99.90;;;;;;5115984;27;20127;-63
2023/08/03 02:06:21;;;;;;;3.92;1.42;;;16.90;99.90;;;;;;5121608;27;20487;-61
2023/08/03 02:08:47;;;;;;;4.82;1.40;;;16.90;99.90;;;;;;5123965;27;20052;-62
2023/08/03 02:11:13;;;;;;;2.47;1.50;;;16.90;99.90;;;;;;5130495;27;20452;-62
2023/08/03 02:13:38;;;;;;;2.63;1.55;;;16.90;99.90;;;;;;5115865;27;20066;-61
2023/08/03 02:16:08;;;;;;;3.78;1.52;;;16.90;99.90;;;;;;5101328;27;20031;-61
2023/08/03 02:18:34;;;;;;;2.10;1.33;;;16.90;99.90;;;;;;5095954;27;20099;-60
2023/08/03 02:21:00;;;;;;;3.78;1.42;;;16.90;99.90;;;;;;5090331;27;20035;-61
2023/08/03 02:23:26;;;;;;;4.15;1.65;;;16.90;99.90;;;;;;5120322;27;20115;-63
2023/08/03 02:25:52;;;;;;;2.83;1.60;;;16.90;99.90;;;;;;5098078;27;20069;-60
2023/08/03 02:28:17;;;;;;;5.78;2.17;;;16.90;99.90;;;;;;5100644;27;20085;-61
2023/08/03 02:30:43;;;;;;;5.28;1.90;;;16.90;99.90;;;;;;5105465;27;20581;-60
2023/08/03 02:33:09;;;;;;;2.15;1.40;;;16.90;99.90;;;;;;5125954;27;20039;-61
2023/08/03 02:35:37;;;;;;;4.13;2.05;;;16.90;99.90;;;;;;5126420;27;20041;-62
2023/08/03 02:38:03;;;;;;;4.13;1.58;;;16.90;99.90;;;;;;5089316;27;20051;-63
2023/08/03 02:40:29;;;;;;;2.38;1.10;;;16.90;99.90;;;;;;5083267;27;20074;-62
2023/08/03 02:42:55;;;;;;;2.80;1.52;;;16.90;99.90;;;;;;5104469;27;20074;-60
2023/08/03 02:45:21;;;;;;;3.00;1.92;;;17.00;99.90;;;;;;5121176;27;20133;-61
2023/08/03 02:47:46;;;;;;;1.90;1.30;;;17.00;99.90;;;;;;5095392;27;20123;-61
2023/08/03 02:50:13;;;;;;;2.83;1.90;;;17.00;99.90;;;;;;5119359;27;20426;-64
2023/08/03 02:52:38;;;;;;;3.97;1.55;;;17.00;99.90;;;;;;5098954;28;20044;-61
2023/08/03 02:55:05;;;;;;;3.10;2.03;;;17.00;99.90;;;;;;5095165;27;20043;-61
2023/08/03 02:57:30;;;;;;;3.58;1.90;;;17.00;99.90;;;;;;5124479;27;20031;-63
2023/08/03 02:59:56;;;;;;;4.40;2.20;;;16.90;99.90;;;;;;5107769;27;20088;-61
2023/08/03 03:02:22;;;;;;;3.08;1.92;;;16.90;99.90;;;;;;5121304;27;20096;-63
2023/08/03 03:04:49;;;;;;;3.05;2.33;;;16.90;99.90;;;;;;5113653;27;20047;-61
2023/08/03 03:07:15;;;;;;;4.13;2.20;;;16.90;99.90;;;;;;5098844;27;20039;-62
2023/08/03 03:09:41;;;;;;;5.72;2.90;;;16.90;99.90;;;;;;5118172;27;20051;-62
2023/08/03 03:12:07;;;;;;;6.18;2.72;;;16.90;99.90;;;;;;5103171;27;20498;-61
2023/08/03 03:14:35;;;;;;;5.40;3.05;;;16.90;99.90;;;;;;5112521;27;20107;-61
2023/08/03 03:17:01;;;;;;;6.13;3.10;;;16.90;99.90;;;;;;5085285;27;20092;-61
2023/08/03 03:19:27;;;;;;;6.07;2.90;;;16.90;99.90;;;;;;5114075;27;20427;-61
2023/08/03 03:21:53;;;;;;;3.67;2.63;;;16.90;99.90;;;;;;5125935;27;20023;-63
2023/08/03 03:24:19;;;;;;;7.28;4.07;;;16.90;99.90;;;;;;5117577;27;20084;-62
2023/08/03 03:26:45;;;;;;;6.82;4.00;;;16.90;99.90;;;;;;5101858;27;20112;-62
2023/08/03 03:29:10;;;;;;;5.57;3.58;;;16.90;99.90;;;;;;5118865;27;20051;-61
2023/08/03 03:31:36;;;;;;;4.25;3.65;;;16.90;99.90;;;;;;5117605;27;20391;-62
2023/08/03 03:34:02;;;;;;;9.02;4.70;;;16.90;99.90;;;;;;5106319;27;20062;-63
2023/08/03 03:36:27;;;;;;;6.20;3.88;;;16.90;99.90;;;;;;5115862;27;20075;-62
2023/08/03 03:38:53;;;;;;;7.97;4.00;;;16.90;99.90;;;;;;5090347;28;20659;-63
2023/08/03 03:41:19;;;;;;;8.98;4.50;;;16.90;99.90;;;;;;5112191;27;20027;-61
2023/08/03 03:43:45;;;;;;;6.60;4.28;;;16.90;99.90;;;;;;5114654;27;20044;-62
2023/08/03 03:46:10;;;;;;;10.32;4.32;;;16.90;99.90;;;;;;5098205;27;20038;-62
2023/08/03 03:48:36;;;;;;;8.30;4.22;;;16.90;99.90;;;;;;5118227;27;20047;-62
2023/08/03 03:51:02;;;;;;;9.73;4.53;;;16.90;99.90;;;;;;5119568;27;20987;-62
2023/08/03 03:53:27;;;;;;;7.78;4.85;;;16.80;99.90;;;;;;5117869;27;20146;-62
2023/08/03 03:55:53;;;;;;;8.65;4.80;;;16.80;99.90;;;;;;5115058;27;20098;-61
2023/08/03 03:58:19;;;;;;;10.52;5.93;;;16.70;99.90;;;;;;5098295;27;20047;-62
2023/08/03 04:00:44;;;;;;;9.43;5.03;;;16.70;99.90;;;;;;5098641;27;20138;-63
2023/08/03 04:03:10;;;;;;;11.90;5.07;;;16.70;99.90;;;;;;5113284;27;20032;-62
2023/08/03 04:05:37;;;;;;;8.70;4.70;;;16.70;99.90;;;;;;5103963;27;20043;-61
2023/08/03 04:08:04;;;;;;;8.68;4.63;;;16.70;99.90;;;;;;5115155;27;20155;-63
2023/08/03 04:10:30;;;;;;;9.23;4.90;;;16.60;99.90;;;;;;5116942;27;20031;-61
2023/08/03 04:12:56;;;;;;;7.78;3.90;;;16.60;99.90;;;;;;5097524;28;20044;-63
2023/08/03 04:15:22;;;;;;;8.30;4.25;;;16.60;99.90;;;;;;5111808;27;20055;-61
2023/08/03 04:17:50;;;;;;;8.48;3.95;;;16.60;99.90;;;;;;5091044;28;20075;-62
2023/08/03 04:20:16;;;;;;;9.15;4.88;;;16.60;99.90;;;;;;5109032;28;20114;-62
2023/08/03 04:22:42;;;;;;;9.20;4.78;;;16.50;99.90;;;;;;5086837;28;20570;-61
2023/08/03 04:25:09;;;;;;;7.13;4.25;;;16.50;99.90;;;;;;5110614;28;20063;-61
2023/08/03 04:27:36;;;;;;;8.55;4.22;;;16.50;99.90;;;;;;5103736;28;20096;-62
2023/08/03 04:30:01;;;;;;;9.93;4.28;;;16.40;99.90;;;;;;5098524;28;20092;-60
2023/08/03 04:32:27;;;;;;;8.15;4.30;;;16.40;99.90;;;;;;5113181;28;20487;-61
2023/08/03 04:34:53;;;;;;;9.95;4.97;;;16.40;99.90;;;;;;5113589;28;20074;-61
2023/08/03 04:37:19;;;;;;;10.15;4.47;;;16.40;99.90;;;;;;5112526;28;20039;-60
2023/08/03 04:39:45;;;;;;;9.43;4.18;;;16.40;99.90;;;;;;5117382;28;20094;-60
2023/08/03 04:42:11;;;;;;;9.15;4.68;;;16.40;99.90;;;;;;5097993;28;20112;-61
2023/08/03 04:44:37;;;;;;;8.05;5.03;;;16.40;99.90;;;;;;5117551;28;20475;-63
2023/08/03 04:47:03;;;;;;;9.73;5.22;;;16.40;99.90;;;;;;5093109;28;20047;-62
2023/08/03 04:49:28;;;;;;;8.82;5.13;;;16.40;99.90;;;;;;5117813;28;20122;-61
2023/08/03 04:51:54;;;;;;;10.80;5.30;;;16.40;99.90;;;;;;5119304;28;20415;-60
2023/08/03 04:54:21;;;;;;;9.82;4.75;;;16.40;99.90;;;;;;5099674;28;20128;-61
2023/08/03 04:56:47;;;;;;;10.02;5.05;;;16.40;99.90;;;;;;5114236;28;20087;-61
2023/08/03 04:59:13;;;;;;;9.15;4.93;;;16.40;99.90;;;;;;5113745;28;20043;-62
2023/08/03 05:01:39;;;;;;;7.93;4.38;;;16.40;99.90;;;;;;5114593;28;20515;-60
2023/08/03 05:04:04;;;;;;;13.20;5.82;;;16.40;99.90;;;;;;5121398;28;20035;-61
2023/08/03 05:06:30;;;;;;;10.25;5.53;;;16.40;99.90;;;;;;5119355;28;20596;-62
2023/08/03 05:08:56;;;;;;;13.82;5.10;;;16.40;99.90;;;;;;5122564;27;20180;-62
2023/08/03 05:11:21;;;;;;;12.63;4.18;;;16.40;99.90;;;;;;5118479;27;20039;-62
2023/08/03 05:13:47;;;;;;;9.70;4.38;;;16.40;99.90;;;;;;5098749;27;20394;-61
2023/08/03 05:16:13;;;;;;;12.82;4.82;;;16.40;99.90;;;;;;5085300;27;20040;-60
2023/08/03 05:18:38;;;;;;;10.50;4.63;;;16.40;99.90;;;;;;5124480;27;20031;-62
2023/08/03 05:21:04;;;;;;;10.93;4.78;;;16.40;99.90;;;;;;5114662;27;20554;-61
2023/08/03 05:23:30;;;;;;;15.60;5.18;;;16.50;99.90;;;;;;5100540;27;20039;-61
2023/08/03 05:25:57;;;;;;;10.02;4.47;;;16.50;99.90;;;;;;5120771;27;20059;-61
2023/08/03 05:28:25;;;;;;;8.27;4.50;;;16.50;99.90;;;;;;5124106;27;20035;-63
2023/08/03 05:30:54;;;;;;;9.18;4.38;;;16.50;99.90;;;;;;5092254;27;22340;-62
2023/08/03 05:33:20;;;;;;;9.15;3.53;;;16.50;99.90;;;;;;5111640;27;20479;-60
2023/08/03 05:35:47;;;;;;;8.68;4.50;;;16.50;99.90;;;;;;5091791;27;20050;-62
2023/08/03 05:38:14;;;;;;;13.32;4.63;;;16.60;99.90;;;;;;5109832;27;20628;-62
2023/08/03 05:40:40;;;;;;;7.95;3.63;;;16.60;99.90;;;;;;5105699;27;20047;-61
2023/08/03 05:43:15;;;;;;;9.52;5.45;;;16.70;99.90;;;;;;5104580;27;20047;-62
2023/08/03 05:45:48;;;;;;;10.48;5.20;;;16.70;99.90;;;;;;5119446;27;20043;-61
2023/08/03 05:48:13;;;;;;;11.85;4.47;;;16.80;99.90;;;;;;5100923;27;20103;-62
2023/08/03 05:50:47;;;;;;;9.18;5.40;;;16.90;99.90;;;;;;5115357;27;20043;-61
2023/08/03 05:53:13;;;;;;;9.38;4.45;;;16.90;99.90;;;;;;5101709;28;20039;-61
2023/08/03 05:55:40;;;;;;;8.43;4.97;;;17.00;99.90;;;;;;5120000;27;20676;-61
2023/08/03 05:58:09;;;;;;;11.50;5.28;;;17.10;99.90;;;;;;5072540;27;20028;-60
2023/08/03 06:00:35;;;;;;;9.75;4.50;;;17.20;99.90;;;;;;5080101;27;20047;-63
2023/08/03 06:03:00;;;;;;;9.70;3.65;;;17.20;99.90;;;;;;5105648;27;20399;-60
2023/08/03 06:05:38;;;;;;;8.45;3.80;;;17.20;99.90;;;;;;5120938;27;20031;-60
2023/08/03 06:08:17;;;;;;;7.25;3.15;;;17.30;99.90;;;;;;5082502;27;20114;-62
2023/08/03 06:10:45;;;;;;;5.80;3.05;;;17.40;99.90;;;;;;5111573;27;20440;-62
2023/08/03 06:13:16;;;;;;;7.95;3.00;;;17.40;99.90;;;;;;5119996;27;20506;-60
2023/08/03 06:15:43;;;;;;;4.57;2.42;;;17.40;99.90;;;;;;5119095;27;20031;-61
2023/08/03 06:18:14;;;;;;;6.13;2.47;;;17.50;99.90;;;;;;5081547;27;20039;-61
2023/08/03 06:20:43;;;;;;;3.70;1.98;;;17.50;99.90;;;;;;5120588;27;20134;-62
2023/08/03 06:23:22;;;;;;;3.08;1.75;;;17.50;99.90;;;;;;5086435;27;20416;-62
2023/08/03 06:25:50;;;;;;;2.97;1.10;;;17.50;99.90;;;;;;5100092;28;20050;-61
2023/08/03 06:28:18;;;;;;;3.75;1.25;;;17.50;99.90;;;;;;5083580;27;20031;-61
2023/08/03 06:30:45;;;;;;;2.65;1.40;;;17.70;99.90;;;;;;5118816;27;20110;-62
2023/08/03 06:33:17;;;;;;;4.50;1.40;;;17.70;99.90;;;;;;5118790;27;20096;-62
2023/08/03 06:35:44;;;;;;;4.45;1.75;;;17.80;99.90;;;;;;5125064;27;20047;-62
2023/08/03 06:38:12;;;;;;;3.60;1.92;;;17.80;99.90;;;;;;5120740;27;20482;-62
2023/08/03 06:40:42;;;;;;;4.70;1.63;;;17.70;99.90;;;;;;5119118;27;20043;-61
2023/08/03 06:43:13;;;;;;;5.70;1.42;;;17.70;99.90;;;;;;5123289;27;20057;-61
2023/08/03 06:45:43;;;;;;;4.70;1.35;;;17.80;99.90;;;;;;5117721;27;20143;-62
2023/08/03 06:48:10;;;;;;;4.00;1.48;;;17.90;99.90;;;;;;5124401;27;21440;-61
2023/08/03 06:50:36;;;;;;;6.43;1.70;;;18.00;99.90;;;;;;5106941;27;20035;-61
2023/08/03 06:53:03;;;;;;;9.18;2.58;;;18.10;99.90;;;;;;5104737;27;20086;-61
2023/08/03 06:55:30;;;;;;;5.45;1.40;;;18.20;99.90;;;;;;5118961;27;20074;-62
2023/08/03 06:57:56;;;;;;;5.03;1.58;;;18.20;99.90;;;;;;5098793;27;20023;-61
2023/08/03 07:00:28;;;;;;;5.93;2.15;;;18.20;99.90;;;;;;5121009;27;20024;-61
2023/08/03 07:02:54;;;;;;;5.03;1.10;;;18.20;99.90;;;;;;5097400;27;20039;-61
2023/08/03 07:05:20;;;;;;;7.22;1.25;;;18.30;99.90;;;;;;5102422;27;20039;-62
2023/08/03 07:07:46;;;;;;;5.10;1.30;;;18.30;99.90;;;;;;5105078;27;20387;-62
2023/08/03 07:10:11;;;;;;;4.90;1.90;;;18.40;99.90;;;;;;5118782;27;20041;-62
2023/08/03 07:12:37;;;;;;;3.80;1.20;;;18.50;99.90;;;;;;5082716;27;20082;-58
2023/08/03 07:15:04;;;;;;;5.95;1.65;;;18.60;99.90;;;;;;5123586;27;20036;-58
2023/08/03 07:17:31;;;;;;;3.95;1.60;;;18.70;99.90;;;;;;5102183;27;20534;-58
2023/08/03 07:19:56;;;;;;;6.03;1.40;;;18.80;99.90;;;;;;5118507;27;20035;-58
2023/08/03 07:22:22;;;;;;;3.05;1.25;;;18.80;99.90;;;;;;5127495;27;20039;-58
2023/08/03 07:24:48;;;;;;;5.22;1.70;;;18.80;99.90;;;;;;5114649;27;20088;-58
2023/08/03 07:27:15;;;;;;;5.82;1.25;;;18.80;99.90;;;;;;5098438;27;20035;-58
2023/08/03 07:29:42;;;;;;;5.70;1.52;;;18.70;99.90;;;;;;5115922;27;20073;-58
2023/08/03 07:32:09;;;;;;;6.43;2.00;;;18.80;99.90;;;;;;5121584;27;20035;-58
2023/08/03 07:34:34;;;;;;;6.95;1.55;;;18.80;99.90;;;;;;5119157;27;20035;-59
2023/08/03 07:37:01;;;;;;;5.38;1.65;;;18.90;99.90;;;;;;5099661;28;20111;-59
2023/08/03 07:39:27;;;;;;;4.50;1.50;;;19.00;99.90;;;;;;5078784;27;20040;-58
2023/08/03 07:41:53;;;;;;;6.75;1.35;;;19.10;99.90;;;;;;5115998;27;20035;-58
2023/08/03 07:44:19;;;;;;;7.93;1.75;;;19.10;99.90;;;;;;5102748;27;20044;-59
2023/08/03 07:46:46;;;;;;;7.05;1.90;;;19.10;99.90;;;;;;5116082;27;20067;-60
2023/08/03 07:49:12;;;;;;;6.25;1.63;;;19.00;99.90;;;;;;5114296;27;20055;-59
2023/08/03 07:51:37;;;;;;;5.25;1.88;;;19.10;99.90;;;;;;5120245;27;20126;-56
2023/08/03 07:54:03;;;;;;;6.20;1.70;;;19.20;99.90;;;;;;5112277;27;20115;-56
2023/08/03 07:56:29;;;;;;;8.60;2.00;;;19.20;99.90;;;;;;5121919;27;20082;-58
2023/08/03 07:58:56;;;;;;;7.18;1.77;;;19.40;99.90;;;;;;5083114;27;20085;-58
2023/08/03 08:01:23;;;;;;;5.20;1.70;;;19.50;99.90;;;;;;5122639;27;20035;-58
2023/08/03 08:03:49;;;;;;;7.85;2.20;;;19.60;99.90;;;;;;5102318;27;20049;-57
2023/08/03 08:06:17;;;;;;;6.80;1.90;;;19.70;99.90;;;;;;5128198;27;20442;-56
2023/08/03 08:08:43;;;;;;;6.80;1.80;;;19.80;99.90;;;;;;5100740;27;20043;-57
2023/08/03 08:11:09;;;;;;;6.55;2.15;;;19.90;99.90;;;;;;5102677;27;20110;-56
2023/08/03 08:13:35;;;;;;;6.55;2.00;;;19.80;99.90;;;;;;5098994;28;20047;-58
2023/08/03 08:16:06;;;;;;;7.22;2.22;;;19.90;99.90;;;;;;5085570;28;20088;-58
2023/08/03 08:18:32;;;;;;;8.23;1.75;;;20.00;99.90;;;;;;5118279;27;20036;-57
2023/08/03 08:21:03;;;;;;;7.32;1.80;;;19.90;99.90;;;;;;5112499;28;20039;-56
2023/08/03 08:23:29;;;;;;;7.57;1.98;;;19.90;99.90;;;;;;5095839;28;20028;-57
2023/08/03 08:25:55;;;;;;;7.25;1.92;;;19.70;99.90;;;;;;5109117;28;20038;-58
2023/08/03 08:28:21;;;;;;;6.43;2.40;;;19.60;99.90;;;;;;5112704;28;20069;-57
2023/08/03 08:30:47;;;;;;;8.20;2.33;;;19.80;99.90;;;;;;5096043;28;20111;-54
2023/08/03 08:33:19;;;;;;;8.32;2.00;;;19.80;99.90;;;;;;5101487;28;20050;-56
2023/08/03 08:35:48;;;;;;;8.50;2.70;;;19.90;99.90;;;;;;5077695;28;20352;-58
2023/08/03 08:38:15;;;;;;;5.45;1.92;;;20.00;99.90;;;;;;5098310;28;20058;-57
2023/08/03 08:40:42;;;;;;;13.02;2.95;;;20.10;99.90;;;;;;5115645;27;20035;-57
2023/08/03 08:43:08;;;;;;;6.20;2.10;;;20.10;99.90;;;;;;5094748;27;20043;-58
2023/08/03 08:45:36;;;;;;;7.85;2.20;;;20.20;99.90;;;;;;5106987;27;20692;-58
2023/08/03 08:48:02;;;;;;;10.23;2.17;;;20.30;99.90;;;;;;5120957;27;20024;-57
2023/08/03 08:50:28;;;;;;;9.52;2.95;;;20.30;99.90;;;;;;5120312;27;20047;-59
2023/08/03 08:52:55;;;;;;;11.63;2.50;;;20.40;99.90;;;;;;5132517;27;20046;-58
2023/08/03 08:55:23;;;;;;;7.22;1.88;;;20.50;99.90;;;;;;5119799;27;20486;-57
2023/08/03 08:57:50;;;;;;;9.32;1.90;;;20.50;99.90;;;;;;5122620;27;20053;-58
2023/08/03 09:00:16;;;;;;;11.50;2.53;;;20.50;99.90;;;;;;5121755;27;20102;-56
2023/08/03 09:02:41;;;;;;;5.60;1.85;;;20.50;99.90;;;;;;5121466;27;20035;-61
2023/08/03 09:05:14;;;;;;;7.70;1.90;;;20.50;99.90;;;;;;5095521;27;20039;-59
2023/08/03 09:07:40;;;;;;;9.15;2.17;;;20.60;99.90;;;;;;5115977;27;20031;-59
2023/08/03 09:10:07;;;;;;;6.82;2.17;;;20.80;99.90;;;;;;5122665;27;20571;-57
2023/08/03 09:12:33;;;;;;;7.25;2.17;;;20.80;99.90;;;;;;5097008;27;20118;-58
2023/08/03 09:14:59;;;;;;;6.68;2.00;;;20.80;99.90;;;;;;5103573;27;20229;-59
2023/08/03 09:17:27;;;;;;;7.30;1.92;;;20.90;99.90;;;;;;5100033;27;20043;-58
2023/08/03 09:19:53;;;;;;;8.18;1.70;;;20.90;99.90;;;;;;5123318;27;20570;-58
2023/08/03 09:22:21;;;;;;;8.55;2.00;;;21.00;99.90;;;;;;5114206;27;20574;-59
2023/08/03 09:25:00;;;;;;;6.85;1.92;;;21.20;99.90;;;;;;5119426;27;20039;-57
2023/08/03 09:27:26;;;;;;;9.40;2.33;;;21.20;99.90;;;;;;5099814;27;20043;-59
2023/08/03 09:30:01;;;;;;;5.82;1.75;;;21.20;99.90;;;;;;5124842;27;20043;-59
2023/08/03 09:32:34;;;;;;;7.07;1.60;;;21.10;99.90;;;;;;5099383;27;20035;-59
2023/08/03 09:35:00;;;;;;;10.00;2.20;;;21.30;99.90;;;;;;5126591;27;20104;-59
2023/08/03 09:37:34;;;;;;;8.55;2.08;;;21.30;99.90;;;;;;5095851;27;20043;-59
2023/08/03 09:40:03;;;;;;;;;;;21.60;99.90;;;;;;5118726;27;20051;-59
2023/08/03 09:42:33;;;;;;;7.68;2.67;;;21.60;99.90;;;;;;5096133;28;19915;-58
2023/08/03 09:45:02;;;;;;;4.50;1.45;;;21.60;99.90;;;;;;5116664;27;20071;-57
2023/08/03 09:47:30;;;;;;;4.13;1.55;;;21.40;99.90;;;;;;5092025;28;20046;-57
2023/08/03 09:49:56;;;;;;;6.13;1.52;;;21.40;99.90;;;;;;5099657;27;20040;-57
2023/08/03 09:52:26;;;;;;;7.43;1.60;;;21.40;99.90;;;;;;5112045;27;20039;-58
2023/08/03 09:54:55;;;;;;;3.92;1.10;;;21.60;99.90;;;;;;5113520;27;20039;-57
2023/08/03 09:57:23;;;;;;;10.45;2.13;;;21.40;99.90;;;;;;5112118;27;20044;-59
2023/08/03 09:59:54;;;;;;;15.65;4.97;;;21.60;99.90;;;;;;5093850;27;20543;-59
2023/08/03 10:02:24;;;;;;;3.65;1.30;;;21.60;99.90;;;;;;5104928;27;20039;-58
2023/08/03 10:04:55;;;;;;;4.13;1.00;;;21.70;99.90;;;;;;5103664;27;20115;-61
2023/08/03 10:07:23;;;;;;;4.93;1.17;;;21.90;99.90;;;;;;5104248;27;20114;-59
2023/08/03 10:09:53;;;;;;;1.80;0.88;;;21.90;99.90;;;;;;5114902;27;20072;-59
2023/08/03 10:12:24;;;;;;;4.60;1.13;;;22.00;99.90;;;;;;5120602;27;20505;-56
2023/08/03 10:14:54;;;;;;;4.40;1.23;;;22.00;99.90;;;;;;5120715;27;20099;-57
2023/08/03 10:17:20;;;;;;;5.57;1.02;;;21.90;99.90;;;;;;5124559;27;20612;-57
2023/08/03 10:19:47;;;;;;;4.55;0.98;;;21.70;99.90;;;;;;5101375;27;20038;-56
2023/08/03 10:22:13;;;;;;;7.13;1.40;;;21.50;99.90;;;;;;5122224;27;20076;-58
2023/08/03 10:24:39;;;;;;;4.40;1.00;;;21.40;99.90;;;;;;5114041;27;20040;-57
2023/08/03 10:27:18;;;;;;;4.00;0.80;;;21.30;99.90;;;;;;5115565;27;20165;-56
2023/08/03 10:29:50;;;;;;;2.72;1.20;;;20.90;99.90;;;;;;5119602;27;20039;-58
2023/08/03 10:32:25;;;;;;;3.92;1.20;;;20.70;99.90;;;;;;5103088;28;20050;-59
2023/08/03 10:34:52;;;;;;;6.38;1.27;;;20.70;99.90;;;;;;5118677;27;20048;-57
2023/08/03 10:37:19;;;;;;;3.10;1.15;;;20.60;99.90;;;;;;5115202;27;20039;-58
2023/08/03 10:39:52;;;;;;;3.20;0.85;;;20.60;99.90;;;;;;5111826;27;20058;-59
2023/08/03 10:42:25;;;;;;;5.57;1.20;;;20.60;99.90;;;;;;5100706;27;20473;-59
2023/08/03 10:44:51;;;;;;;4.53;1.20;;;20.60;99.90;;;;;;5108395;27;20058;-59
2023/08/03 10:47:28;;;;;;;4.88;0.93;;;20.70;99.90;;;;;;5116540;27;20027;-59
2023/08/03 10:49:55;;;;;;;4.90;1.33;;;20.60;99.90;;;;;;5117459;27;20112;-57
2023/08/03 10:52:32;;;;;;;4.38;1.83;;;20.50;99.90;;;;;;5120681;27;20057;-58
2023/08/03 10:54:59;;;;;;;4.45;1.00;;;20.50;99.90;;;;;;5112092;27;20076;-58
2023/08/03 10:57:28;;;;;;;2.55;0.93;;;20.50;99.90;;;;;;5095051;27;20096;-58
2023/08/03 10:59:59;;;;;;;2.55;1.10;;;20.30;99.90;;;;;;5114726;27;20534;-59
2023/08/03 11:02:33;;;;;;;4.18;1.15;;;20.40;99.90;;;;;;5096500;27;20046;-57
2023/08/03 11:05:01;;;;;;;6.40;1.35;;;20.50;99.90;;;;;;5103333;27;20514;-58
2023/08/03 11:07:37;;;;;;;4.38;1.50;;;20.60;99.90;;;;;;5097507;27;20475;-59
2023/08/03 11:10:06;;;;;;;3.50;1.48;;;20.60;99.90;;;;;;5117130;27;20063;-59
2023/08/03 11:12:34;;;;;;;3.03;1.35;;;20.70;99.90;;;;;;5112388;27;20040;-58
2023/08/03 11:15:01;;;;;;;3.13;1.10;;;20.70;99.90;;;;;;5116635;27;20070;-58
2023/08/03 11:17:29;;;;;;;5.75;1.52;;;20.80;99.90;;;;;;5118880;27;20620;-58
2023/08/03 11:19:56;;;;;;;4.20;1.40;;;20.90;99.90;;;;;;5120886;27;20039;-59
2023/08/03 11:22:24;;;;;;;3.78;1.55;;;21.20;99.90;;;;;;5117873;27;20031;-59
2023/08/03 11:24:51;;;;;;;6.43;1.77;;;21.30;99.90;;;;;;5082034;27;20043;-59
2023/08/03 11:27:18;;;;;;;5.95;1.52;;;21.40;99.90;;;;;;5116145;27;20486;-59
2023/08/03 11:29:47;;;;;;;6.80;2.13;;;21.50;99.90;;;;;;5120472;27;20103;-58
2023/08/03 11:32:21;;;;;;;8.38;1.90;;;21.30;99.90;;;;;;5081798;27;20046;-59
2023/08/03 11:34:47;;;;;;;5.32;2.20;;;21.20;99.90;;;;;;5116196;27;20111;-59
2023/08/03 11:37:13;;;;;;;6.20;1.83;;;21.20;99.90;;;;;;5102326;27;20173;-57
2023/08/03 11:39:39;;;;;;;6.65;1.80;;;21.10;99.90;;;;;;5123149;27;20121;-57
2023/08/03 11:42:06;;;;;;;6.43;2.25;;;21.00;99.90;;;;;;5081685;27;20049;-58
2023/08/03 11:44:44;;;;;;;8.38;1.70;;;21.00;99.90;;;;;;5120118;27;20046;-58
2023/08/03 11:47:10;;;;;;;8.85;2.20;;;21.00;99.90;;;;;;5117610;27;20047;-59
2023/08/03 11:49:36;;;;;;;7.95;2.63;;;20.90;99.90;;;;;;5122738;27;20566;-58
2023/08/03 11:52:01;;;;;;;9.57;2.25;;;20.60;99.90;;;;;;5117915;27;20050;-59
2023/08/03 11:54:39;;;;;;;8.10;2.20;;;20.50;99.90;;;;;;5113100;27;20031;-58
2023/08/03 11:59:52;;;;;;;9.05;2.00;;;20.50;99.90;;;;;;5097818;27;20577;-58
2023/08/03 12:02:39;;;;;;;5.85;1.70;;;20.60;99.90;;;;;;5095017;27;20048;-59
2023/08/03 12:05:06;;;;;;;6.75;1.65;;;20.70;99.90;;;;;;5101404;27;20470;-60
2023/08/03 12:07:32;;;;;;;8.63;1.70;;;20.60;99.90;;;;;;5120936;27;20055;-58
2023/08/03 12:09:58;;;;;;;8.73;2.70;;;20.40;99.90;;;;;;5101197;27;20067;-58
2023/08/03 12:12:24;;;;;;;6.88;1.88;;;20.40;99.90;;;;;;5119882;27;20144;-60
2023/08/03 12:14:50;;;;;;;10.00;1.88;;;20.40;99.90;;;;;;5086974;28;20103;-60
2023/08/03 12:17:16;;;;;;;8.27;2.50;;;20.40;99.90;;;;;;5106754;27;20043;-60
2023/08/03 12:19:42;;;;;;;10.02;3.00;;;20.30;99.90;;;;;;5124256;27;20519;-60
2023/08/03 12:22:07;;;;;;;13.07;3.47;;;20.00;99.90;;;;;;5100303;28;20032;-60
2023/08/03 12:24:33;;;;;;;8.30;3.22;;;19.80;99.90;;;;;;5107895;28;20035;-60
2023/08/03 12:27:00;;;;;;;9.82;3.13;;;19.60;99.90;;;;;;5101996;28;20038;-59
2023/08/03 12:29:26;;;;;;;8.18;2.83;;;19.40;99.90;;;;;;5095395;28;20039;-60
2023/08/03 12:31:52;;;;;;;12.13;4.15;;;19.30;99.90;;;;;;5103791;28;20042;-60
2023/08/03 12:34:18;;;;;;;10.50;3.55;;;19.20;99.90;;;;;;5109886;28;20124;-59
2023/08/03 12:36:43;;;;;;;11.85;3.67;;;19.20;99.90;;;;;;5088161;28;20073;-59
2023/08/03 12:39:09;;;;;;;14.75;4.00;;;19.30;99.90;;;;;;5121686;28;20036;-60
2023/08/03 12:41:35;;;;;;;13.52;4.28;;;19.50;99.90;;;;;;5087022;27;20128;-60
2023/08/03 12:44:01;;;;;;;12.05;4.22;;;19.50;99.90;;;;;;5098090;28;20157;-60
2023/08/03 12:46:26;;;;;;;11.35;3.58;;;19.50;99.90;;;;;;5115885;28;20046;-60
2023/08/03 12:48:52;;;;;;;14.35;4.05;;;19.60;99.90;;;;;;5117861;28;20031;-60